createdAt,value
2019-01-04T00:01:28.132Z,-0.10
2019-01-04T00:03:56.899Z,-0.20
2019-01-04T00:06:25.455Z,-0.20
2019-01-04T00:08:54.043Z,-0.30
2019-01-04T00:11:22.606Z,-0.30
2019-01-04T00:13:51.266Z,-0.20
2019-01-04T00:16:19.936Z,-0.20
2019-01-04T00:18:48.489Z,-0.20
2019-01-04T00:21:17.116Z,-0.40
2019-01-04T00:23:45.811Z,-0.40
2019-01-04T00:26:14.472Z,-0.40
2019-01-04T00:28:43.030Z,-0.50
2019-01-04T00:31:11.695Z,-0.40
2019-01-04T00:33:40.314Z,-0.30
2019-01-04T00:36:08.902Z,-0.30
2019-01-04T00:38:37.462Z,-0.40
2019-01-04T00:41:06.038Z,-0.40
2019-01-04T00:43:34.628Z,-0.40
2019-01-04T00:46:03.267Z,-0.20
2019-01-04T00:48:31.882Z,-0.30
2019-01-04T00:51:00.427Z,-0.20
2019-01-04T00:53:29.023Z,-0.50
2019-01-04T00:56:33.890Z,-0.80
2019-01-04T00:59:14.551Z,-0.80
2019-01-04T01:02:15.068Z,-0.60
2019-01-04T01:05:12.460Z,-0.80
2019-01-04T01:08:12.904Z,-0.60
2019-01-04T01:11:18.151Z,-0.60
2019-01-04T01:13:55.506Z,-0.50
2019-01-04T01:16:47.035Z,-0.60
2019-01-04T01:19:35.447Z,-0.50
2019-01-04T01:22:09.811Z,-0.40
2019-01-04T01:25:10.232Z,-0.40
2019-01-04T01:28:10.515Z,-0.40
2019-01-04T01:31:04.921Z,-0.40
2019-01-04T01:33:54.851Z,-0.50
2019-01-04T01:36:35.381Z,-0.60
2019-01-04T01:39:28.188Z,-0.60
2019-01-04T01:42:25.690Z,-0.50
2019-01-04T01:45:03.191Z,-0.50
2019-01-04T01:47:34.855Z,-0.40
2019-01-04T01:50:09.454Z,-0.50
2019-01-04T01:52:40.044Z,-0.50
2019-01-04T01:55:08.599Z,-0.40
2019-01-04T01:57:37.202Z,-0.50
2019-01-04T02:00:06.557Z,-0.40
2019-01-04T02:02:35.149Z,-0.40
2019-01-04T02:05:04.171Z,-0.40
2019-01-04T02:07:32.767Z,-0.40
2019-01-04T02:10:01.312Z,-0.40
2019-01-04T02:12:29.900Z,-0.50
2019-01-04T02:14:58.528Z,-0.70
2019-01-04T02:17:27.112Z,-0.70
2019-01-04T02:19:55.662Z,-0.70
2019-01-04T02:22:24.183Z,-0.60
2019-01-04T02:24:52.789Z,-0.60
2019-01-04T02:27:21.352Z,-0.70
2019-01-04T02:29:49.962Z,-0.50
2019-01-04T02:32:18.624Z,-0.60
2019-01-04T02:34:47.172Z,-0.60
2019-01-04T02:37:15.759Z,-0.50
2019-01-04T02:39:44.356Z,-0.50
2019-01-04T02:42:12.931Z,-0.50
2019-01-04T02:44:41.528Z,-0.50
2019-01-04T02:47:10.351Z,-0.60
2019-01-04T02:49:38.947Z,-0.50
2019-01-04T02:52:07.495Z,-0.40
2019-01-04T02:54:36.090Z,-0.40
2019-01-04T02:57:04.642Z,-0.30
2019-01-04T02:59:33.207Z,-0.10
2019-01-04T03:02:02.142Z,0.00
2019-01-04T03:04:30.738Z,0.00
2019-01-04T03:06:59.295Z,-0.10
2019-01-04T03:09:27.899Z,-0.10
2019-01-04T03:11:56.448Z,-0.10
2019-01-04T03:14:25.044Z,-0.30
2019-01-04T03:16:53.602Z,-0.50
2019-01-04T03:19:22.183Z,-0.50
2019-01-04T03:24:22.631Z,-0.50
2019-01-04T03:26:51.559Z,-0.70
2019-01-04T03:29:20.163Z,-0.50
2019-01-04T03:31:48.710Z,-0.40
2019-01-04T03:34:17.299Z,-0.40
2019-01-04T03:36:45.839Z,-0.30
2019-01-04T03:39:14.443Z,-0.30
2019-01-04T03:41:43.082Z,-0.20
2019-01-04T03:44:11.565Z,-0.10
2019-01-04T03:46:40.167Z,-0.20
2019-01-04T03:49:08.714Z,-0.20
2019-01-04T03:51:37.380Z,-0.30
2019-01-04T03:54:06.245Z,-0.40
2019-01-04T03:56:34.895Z,-0.30
2019-01-04T03:59:03.464Z,-0.20
2019-01-04T04:01:32.041Z,-0.20
2019-01-04T04:04:00.595Z,-0.20
2019-01-04T04:06:29.190Z,-0.20
2019-01-04T04:08:57.782Z,-0.20
2019-01-04T04:11:26.379Z,-0.20
2019-01-04T04:13:54.963Z,-0.10
2019-01-04T04:16:23.523Z,-0.10
2019-01-04T04:18:52.111Z,-0.10
2019-01-04T04:21:21.527Z,0.00
2019-01-04T04:23:53.055Z,0.20
2019-01-04T04:26:21.635Z,0.10
2019-01-04T04:28:50.231Z,0.20
2019-01-04T04:31:18.806Z,0.10
2019-01-04T04:33:47.387Z,0.00
2019-01-04T04:36:15.855Z,0.00
2019-01-04T04:38:44.441Z,0.10
2019-01-04T04:41:13.003Z,0.20
2019-01-04T04:43:41.592Z,0.20
2019-01-04T04:46:10.143Z,0.20
2019-01-04T04:48:38.759Z,0.00
2019-01-04T04:51:07.287Z,0.00
2019-01-04T04:53:36.014Z,0.10
2019-01-04T04:56:04.727Z,0.00
2019-01-04T04:58:33.340Z,0.10
2019-01-04T05:01:01.904Z,0.30
2019-01-04T05:03:30.791Z,0.30
2019-01-04T05:05:59.386Z,0.40
2019-01-04T05:08:27.939Z,0.30
2019-01-04T05:10:56.619Z,0.20
2019-01-04T05:13:25.150Z,0.10
2019-01-04T05:15:53.751Z,0.20
2019-01-04T05:18:22.290Z,0.20
2019-01-04T05:20:50.950Z,0.20
2019-01-04T05:23:19.499Z,0.10
2019-01-04T05:25:48.091Z,0.00
2019-01-04T05:28:16.636Z,0.00
2019-01-04T05:30:45.222Z,0.00
2019-01-04T05:33:13.783Z,0.10
2019-01-04T05:35:42.370Z,0.10
2019-01-04T05:38:10.922Z,0.00
2019-01-04T05:40:39.515Z,-0.10
2019-01-04T05:43:08.074Z,-0.10
2019-01-04T05:45:36.604Z,-0.10
2019-01-04T05:48:05.167Z,-0.20
2019-01-04T05:50:34.031Z,0.10
2019-01-04T05:53:03.402Z,0.00
2019-01-04T05:55:31.882Z,0.20
2019-01-04T05:58:00.430Z,-0.10
2019-01-04T06:00:29.279Z,-0.40
2019-01-04T06:02:58.173Z,-0.30
2019-01-04T06:05:26.775Z,-0.20
2019-01-04T06:07:55.364Z,-0.10
2019-01-04T06:10:23.918Z,-0.10
2019-01-04T06:12:52.510Z,-0.10
2019-01-04T06:15:21.056Z,0.10
2019-01-04T06:17:49.651Z,0.20
2019-01-04T06:20:18.240Z,0.20
2019-01-04T06:22:46.811Z,0.10
2019-01-04T06:25:15.408Z,0.00
2019-01-04T06:27:44.218Z,0.00
2019-01-04T06:30:12.913Z,-0.10
2019-01-04T06:32:41.506Z,-0.10
2019-01-04T06:35:10.057Z,-0.20
2019-01-04T06:37:38.649Z,-0.30
2019-01-04T06:40:09.839Z,-0.20
2019-01-04T06:42:38.495Z,-0.20
2019-01-04T06:45:07.992Z,-0.20
2019-01-04T06:47:37.118Z,-0.30
2019-01-04T06:50:08.218Z,-0.20
2019-01-04T06:52:36.810Z,-0.30
2019-01-04T06:55:20.450Z,-0.30
2019-01-04T06:57:49.047Z,-0.30
2019-01-04T07:00:17.654Z,-0.30
2019-01-04T07:02:46.201Z,-0.30
2019-01-04T07:05:14.688Z,0.00
2019-01-04T07:07:43.276Z,0.00
2019-01-04T07:10:11.875Z,-0.20
2019-01-04T07:12:40.433Z,-0.20
2019-01-04T07:15:08.989Z,-0.10
2019-01-04T07:17:37.586Z,-0.30
2019-01-04T07:20:06.288Z,-0.30
2019-01-04T07:22:34.882Z,-0.40
2019-01-04T07:25:03.696Z,-0.30
2019-01-04T07:27:32.276Z,-0.30
2019-01-04T07:30:00.828Z,-0.30
2019-01-04T07:32:29.410Z,-0.10
2019-01-04T07:34:57.954Z,-0.20
2019-01-04T07:37:26.554Z,-0.20
2019-01-04T07:39:55.168Z,-0.20
2019-01-04T07:42:23.758Z,-0.10
2019-01-04T07:44:52.230Z,0.00
2019-01-04T07:47:20.741Z,0.20
2019-01-04T07:49:49.302Z,-0.10
2019-01-04T07:52:18.162Z,-0.10
2019-01-04T07:54:46.931Z,-0.20
2019-01-04T07:57:15.489Z,-0.10
2019-01-04T07:59:44.067Z,-0.20
2019-01-04T08:02:38.991Z,0.00
2019-01-04T08:05:13.055Z,0.20
2019-01-04T08:07:41.643Z,0.00
2019-01-04T08:10:10.368Z,0.10
2019-01-04T08:12:38.910Z,-0.10
2019-01-04T08:15:09.867Z,0.00
2019-01-04T08:17:38.412Z,0.00
2019-01-04T08:20:09.534Z,0.10
2019-01-04T08:22:38.222Z,0.00
2019-01-04T08:25:07.931Z,-0.10
2019-01-04T08:27:36.482Z,-0.10
2019-01-04T08:30:10.988Z,0.10
2019-01-04T08:32:39.543Z,0.00
2019-01-04T08:35:08.155Z,0.00
2019-01-04T08:37:36.735Z,0.00
2019-01-04T08:40:08.224Z,0.00
2019-01-04T08:42:37.423Z,0.00
2019-01-04T08:45:07.583Z,0.30
2019-01-04T08:47:36.179Z,0.20
2019-01-04T08:50:07.263Z,0.20
2019-01-04T08:52:35.813Z,0.20
2019-01-04T08:55:07.378Z,0.30
2019-01-04T08:57:35.919Z,0.20
2019-01-04T09:00:07.774Z,0.20
2019-01-04T09:02:36.323Z,0.20
2019-01-04T09:05:05.806Z,0.30
2019-01-04T09:07:34.395Z,0.20
2019-01-04T09:10:03.499Z,0.20
2019-01-04T09:12:32.086Z,0.10
2019-01-04T09:15:00.639Z,0.10
2019-01-04T09:17:29.220Z,0.20
2019-01-04T09:19:57.780Z,0.40
2019-01-04T09:22:26.367Z,0.30
2019-01-04T09:24:54.925Z,0.10
2019-01-04T09:27:23.502Z,0.20
2019-01-04T09:29:52.061Z,0.20
2019-01-04T09:32:20.647Z,0.20
2019-01-04T09:34:49.188Z,0.30
2019-01-04T09:37:17.744Z,0.40
2019-01-04T09:39:46.390Z,0.60
2019-01-04T09:42:14.939Z,0.70
2019-01-04T09:44:43.529Z,0.70
2019-01-04T09:47:12.078Z,0.70
2019-01-04T09:49:40.662Z,0.60
2019-01-04T09:52:09.184Z,0.80
2019-01-04T09:54:37.820Z,0.80
2019-01-04T09:57:06.423Z,0.80
2019-01-04T09:59:34.986Z,0.80
2019-01-04T10:02:03.599Z,0.80
2019-01-04T10:04:32.190Z,0.70
2019-01-04T10:07:00.777Z,0.40
2019-01-04T10:09:29.332Z,0.00
2019-01-04T10:11:57.915Z,0.10
2019-01-04T10:14:26.463Z,0.40
2019-01-04T10:16:55.054Z,0.60
2019-01-04T10:19:23.602Z,0.90
2019-01-04T10:21:52.128Z,1.00
2019-01-04T10:24:20.677Z,1.10
2019-01-04T10:26:49.220Z,0.80
2019-01-04T10:29:17.810Z,1.00
2019-01-04T10:31:46.346Z,1.10
2019-01-04T10:34:14.959Z,1.40
2019-01-04T10:36:43.546Z,1.50
2019-01-04T10:39:12.091Z,1.60
2019-01-04T10:41:40.678Z,1.80
2019-01-04T10:44:09.503Z,2.00
2019-01-04T10:46:38.155Z,2.20
2019-01-04T10:49:06.698Z,2.20
2019-01-04T10:51:35.207Z,2.30
2019-01-04T10:54:03.838Z,2.40
2019-01-04T10:56:32.414Z,2.60
2019-01-04T10:59:00.955Z,2.80
2019-01-04T11:01:29.500Z,2.90
2019-01-04T11:03:58.078Z,3.10
2019-01-04T11:06:26.663Z,3.40
2019-01-04T11:08:55.250Z,3.70
2019-01-04T11:11:23.796Z,3.50
2019-01-04T11:13:52.374Z,3.30
2019-01-04T11:16:20.915Z,3.30
2019-01-04T11:18:49.519Z,3.50
2019-01-04T11:21:18.065Z,3.60
2019-01-04T11:23:59.086Z,3.70
2019-01-04T11:26:33.407Z,3.90
2019-01-04T11:29:05.064Z,3.60
2019-01-04T11:31:48.690Z,3.20
2019-01-04T11:34:35.358Z,3.20
2019-01-04T11:37:09.710Z,3.20
2019-01-04T11:39:41.341Z,3.20
2019-01-04T11:42:13.005Z,3.30
2019-01-04T11:45:07.301Z,3.40
2019-01-04T11:47:57.030Z,3.50
2019-01-04T11:50:51.191Z,3.50
2019-01-04T11:53:19.915Z,3.40
2019-01-04T11:55:48.823Z,3.30
2019-01-04T11:58:17.718Z,3.40
2019-01-04T12:00:46.323Z,3.50
2019-01-04T12:03:15.179Z,3.50
2019-01-04T12:05:43.732Z,3.70
2019-01-04T12:08:12.301Z,3.50
2019-01-04T12:10:41.122Z,3.40
2019-01-04T12:13:09.701Z,3.40
2019-01-04T12:15:38.245Z,3.70
2019-01-04T12:18:06.822Z,4.00
2019-01-04T12:20:35.363Z,3.80
2019-01-04T12:23:04.338Z,3.90
2019-01-04T12:25:32.879Z,3.70
2019-01-04T12:28:01.422Z,3.80
2019-01-04T12:30:30.006Z,3.90
2019-01-04T12:32:58.863Z,3.80
2019-01-04T12:35:27.454Z,3.80
2019-01-04T12:37:55.990Z,3.80
2019-01-04T12:40:24.566Z,3.80
2019-01-04T12:42:53.035Z,3.70
2019-01-04T12:45:21.627Z,3.80
2019-01-04T12:47:50.170Z,3.90
2019-01-04T12:50:18.711Z,4.10
2019-01-04T12:52:47.291Z,4.20
2019-01-04T12:55:15.831Z,4.30
2019-01-04T12:57:44.476Z,4.20
2019-01-04T13:00:13.818Z,4.20
2019-01-04T13:02:42.345Z,4.10
2019-01-04T13:05:11.064Z,4.10
2019-01-04T13:07:39.590Z,4.20
2019-01-04T13:10:08.235Z,4.20
2019-01-04T13:12:36.772Z,4.10
2019-01-04T13:15:06.603Z,3.90
2019-01-04T13:17:35.144Z,3.80
2019-01-04T13:20:03.965Z,3.60
2019-01-04T13:22:32.565Z,3.60
2019-01-04T13:25:01.073Z,3.60
2019-01-04T13:27:29.620Z,3.90
2019-01-04T13:29:58.203Z,3.50
2019-01-04T13:32:26.739Z,3.60
2019-01-04T13:34:55.323Z,3.60
2019-01-04T13:37:23.858Z,3.40
2019-01-04T13:39:52.453Z,3.40
2019-01-04T13:42:21.061Z,3.60
2019-01-04T13:44:49.672Z,3.60
2019-01-04T13:47:18.255Z,3.70
2019-01-04T13:49:46.791Z,3.60
2019-01-04T13:52:15.378Z,3.60
2019-01-04T13:54:43.932Z,3.80
2019-01-04T13:57:12.494Z,3.70
2019-01-04T13:59:41.183Z,3.80
2019-01-04T14:02:09.724Z,3.90
2019-01-04T14:04:38.315Z,3.70
2019-01-04T14:07:06.786Z,3.60
2019-01-04T14:09:35.363Z,3.60
2019-01-04T14:12:03.902Z,3.90
2019-01-04T14:14:32.654Z,3.90
2019-01-04T14:17:01.196Z,4.10
2019-01-04T14:19:29.732Z,4.20
2019-01-04T14:21:58.327Z,4.20
2019-01-04T14:24:26.853Z,4.20
2019-01-04T14:26:55.438Z,4.20
2019-01-04T14:29:24.306Z,4.20
2019-01-04T14:31:52.821Z,4.30
2019-01-04T14:34:21.700Z,4.30
2019-01-04T14:36:50.254Z,4.40
2019-01-04T14:39:18.790Z,4.20
2019-01-04T14:41:47.337Z,4.10
2019-01-04T14:44:15.898Z,4.10
2019-01-04T14:50:15.791Z,4.00
2019-01-04T14:52:44.351Z,3.80
2019-01-04T14:55:12.890Z,3.60
2019-01-04T14:57:41.462Z,3.80
2019-01-04T15:00:11.708Z,3.80
2019-01-04T15:02:40.272Z,3.70
2019-01-04T15:05:08.874Z,3.60
2019-01-04T15:07:37.440Z,3.60
2019-01-04T15:10:08.021Z,3.60
2019-01-04T15:12:36.520Z,3.60
2019-01-04T15:15:06.503Z,3.80
2019-01-04T15:17:35.076Z,3.80
2019-01-04T15:20:04.616Z,3.60
2019-01-04T15:22:33.238Z,3.70
2019-01-04T15:25:01.777Z,3.90
2019-01-04T15:27:30.351Z,4.00
2019-01-04T15:29:58.883Z,4.00
2019-01-04T15:32:27.419Z,3.90
2019-01-04T15:34:55.982Z,3.90
2019-01-04T15:37:24.534Z,3.70
2019-01-04T15:39:53.102Z,3.60
2019-01-04T15:42:21.640Z,3.40
2019-01-04T15:44:50.220Z,3.40
2019-01-04T15:47:18.762Z,3.50
2019-01-04T15:49:47.343Z,3.40
2019-01-04T15:52:15.879Z,3.70
2019-01-04T15:54:44.450Z,3.90
2019-01-04T15:57:13.013Z,4.10
2019-01-04T15:59:41.572Z,4.10
2019-01-04T16:02:10.401Z,3.90
2019-01-04T16:04:39.294Z,3.60
2019-01-04T16:07:08.029Z,3.60
2019-01-04T16:09:36.642Z,3.60
2019-01-04T16:12:06.389Z,3.40
2019-01-04T16:14:35.016Z,3.40
2019-01-04T16:17:03.560Z,3.20
2019-01-04T16:19:32.188Z,3.30
2019-01-04T16:22:00.713Z,3.30
2019-01-04T16:24:29.281Z,3.30
2019-01-04T16:26:57.827Z,3.70
2019-01-04T16:29:26.736Z,3.80
2019-01-04T16:31:55.273Z,3.90
2019-01-04T16:34:23.982Z,4.00
2019-01-04T16:36:52.494Z,3.90
2019-01-04T16:39:21.023Z,3.90
2019-01-04T16:41:49.590Z,3.90
2019-01-04T16:44:18.131Z,4.00
2019-01-04T16:46:46.699Z,4.20
2019-01-04T16:49:15.244Z,4.10
2019-01-04T16:51:43.807Z,3.80
2019-01-04T16:54:12.338Z,3.70
2019-01-04T16:56:40.901Z,3.60
2019-01-04T16:59:09.443Z,3.50
2019-01-04T17:01:38.015Z,3.50
2019-01-04T17:04:06.865Z,3.40
2019-01-04T17:06:35.422Z,3.50
2019-01-04T17:09:06.072Z,3.70
2019-01-04T17:11:34.635Z,3.80
2019-01-04T17:14:03.166Z,3.80
2019-01-04T17:16:31.667Z,3.60
2019-01-04T17:19:00.205Z,3.50
2019-01-04T17:21:28.773Z,3.60
2019-01-04T17:23:57.312Z,3.70
2019-01-04T17:26:25.951Z,3.60
2019-01-04T17:28:54.491Z,3.80
2019-01-04T17:31:23.185Z,3.70
2019-01-04T17:33:51.671Z,3.50
2019-01-04T17:36:20.225Z,3.40
2019-01-04T17:38:48.777Z,3.40
2019-01-04T17:41:17.339Z,3.40
2019-01-04T17:43:45.875Z,3.30
2019-01-04T17:46:14.720Z,3.40
2019-01-04T17:48:43.250Z,3.50
2019-01-04T17:51:11.817Z,3.40
2019-01-04T17:53:40.364Z,3.50
2019-01-04T17:56:09.309Z,3.60
2019-01-04T17:58:37.775Z,3.60
2019-01-04T18:01:06.355Z,3.80
2019-01-04T18:03:34.899Z,3.60
2019-01-04T18:06:03.463Z,3.60
2019-01-04T18:08:31.999Z,3.70
2019-01-04T18:11:00.736Z,3.70
2019-01-04T18:13:29.302Z,3.60
2019-01-04T18:15:57.784Z,3.50
2019-01-04T18:18:26.728Z,3.40
2019-01-04T18:20:55.286Z,3.40
2019-01-04T18:23:23.850Z,3.40
2019-01-04T18:25:52.386Z,3.50
2019-01-04T18:28:20.952Z,3.70
2019-01-04T18:30:49.563Z,3.60
2019-01-04T18:33:18.046Z,3.70
2019-01-04T18:35:46.811Z,3.80
2019-01-04T18:38:15.366Z,3.80
2019-01-04T18:40:43.826Z,3.80
2019-01-04T18:43:12.313Z,3.90
2019-01-04T18:45:40.789Z,3.90
2019-01-04T18:48:09.346Z,3.80
2019-01-04T18:50:37.806Z,3.80
2019-01-04T18:53:06.299Z,3.80
2019-01-04T18:55:35.181Z,3.80
2019-01-04T18:58:03.737Z,3.70
2019-01-04T19:00:32.361Z,3.80
2019-01-04T19:03:00.855Z,3.70
2019-01-04T19:05:29.476Z,3.70
2019-01-04T19:07:58.046Z,3.70
2019-01-04T19:10:26.591Z,3.70
2019-01-04T19:12:55.172Z,3.80
2019-01-04T19:15:23.712Z,3.90
2019-01-04T19:17:52.291Z,3.90
2019-01-04T19:20:20.751Z,3.90
2019-01-04T19:22:49.229Z,4.00
2019-01-04T19:25:18.014Z,4.00
2019-01-04T19:27:46.577Z,4.00
2019-01-04T19:30:15.119Z,4.00
2019-01-04T19:32:43.687Z,4.00
2019-01-04T19:35:12.222Z,3.90
2019-01-04T19:37:40.858Z,3.90
2019-01-04T19:40:11.495Z,3.90
2019-01-04T19:42:40.795Z,3.80
2019-01-04T19:45:09.835Z,3.90
2019-01-04T19:47:38.717Z,3.80
2019-01-04T19:50:16.113Z,3.90
2019-01-04T19:52:44.655Z,3.90
2019-01-04T19:55:13.191Z,3.90
2019-01-04T19:57:41.711Z,3.80
2019-01-04T20:00:10.385Z,3.90
2019-01-04T20:02:39.952Z,3.70
2019-01-04T20:05:08.490Z,3.70
2019-01-04T20:08:02.940Z,3.80
2019-01-04T20:10:51.100Z,3.80
2019-01-04T20:14:00.760Z,3.90
2019-01-04T20:16:59.534Z,3.90
2019-01-04T20:19:29.953Z,3.90
2019-01-04T20:22:16.124Z,3.90
2019-01-04T20:24:49.204Z,3.90
2019-01-04T20:27:19.419Z,3.90
2019-01-04T20:29:52.619Z,3.80
2019-01-04T20:32:22.869Z,3.80
2019-01-04T20:34:53.055Z,3.90
2019-01-04T20:37:39.658Z,3.90
2019-01-04T20:40:26.234Z,3.80
2019-01-04T20:43:05.128Z,3.80
2019-01-04T20:45:38.002Z,3.90
2019-01-04T20:48:20.054Z,3.80
2019-01-04T20:51:06.414Z,3.90
2019-01-04T20:53:45.899Z,3.90
2019-01-04T20:56:16.080Z,3.80
2019-01-04T20:58:46.606Z,3.70
2019-01-04T21:01:29.216Z,3.70
2019-01-04T21:04:15.672Z,3.70
2019-01-04T21:07:01.238Z,3.70
2019-01-04T21:09:47.986Z,3.70
2019-01-04T21:12:36.189Z,3.80
2019-01-04T21:15:13.062Z,3.80
2019-01-04T21:17:59.546Z,3.70
2019-01-04T21:20:46.998Z,3.70
2019-01-04T21:23:17.172Z,3.80
2019-01-04T21:25:50.127Z,3.80
2019-01-04T21:28:36.431Z,3.80
2019-01-04T21:31:09.317Z,3.90
2019-01-04T21:33:45.570Z,3.80
2019-01-04T21:36:18.678Z,3.90
2019-01-04T21:39:03.864Z,3.90
2019-01-04T21:41:34.050Z,3.80
2019-01-04T21:44:04.576Z,3.90
2019-01-04T21:46:50.711Z,4.00
2019-01-04T21:49:20.915Z,3.90
2019-01-04T21:51:51.107Z,3.80
2019-01-04T21:54:27.277Z,3.80
2019-01-04T21:57:06.498Z,3.70
2019-01-04T21:59:42.786Z,3.80
2019-01-04T22:02:12.910Z,3.80
2019-01-04T22:04:55.139Z,3.70
2019-01-04T22:07:27.803Z,3.70
2019-01-04T22:10:00.915Z,3.60
2019-01-04T22:12:47.276Z,3.70
2019-01-04T22:15:33.728Z,3.80
2019-01-04T22:18:03.913Z,3.80
2019-01-04T22:20:34.160Z,3.80
2019-01-04T22:23:04.350Z,3.80
2019-01-04T22:25:34.564Z,3.80
2019-01-04T22:28:10.482Z,3.80
2019-01-04T22:30:55.673Z,3.80
2019-01-04T22:33:34.375Z,3.60
2019-01-04T22:36:13.986Z,3.60
2019-01-04T22:38:46.848Z,3.60
2019-01-04T22:41:17.058Z,3.70
2019-01-04T22:43:59.598Z,3.70
2019-01-04T22:46:35.822Z,3.80
2019-01-04T22:49:21.305Z,3.60
2019-01-04T22:51:54.360Z,3.60
2019-01-04T22:54:40.984Z,3.70
2019-01-04T22:57:11.263Z,3.80
2019-01-04T22:59:41.449Z,3.70
2019-01-04T23:02:17.590Z,3.60
2019-01-04T23:05:05.778Z,3.70
2019-01-04T23:07:38.786Z,3.70
2019-01-04T23:10:24.317Z,3.70
2019-01-04T23:12:54.452Z,3.80
2019-01-04T23:15:30.438Z,3.90
2019-01-04T23:18:00.578Z,3.80
2019-01-04T23:20:48.802Z,3.80
2019-01-04T23:23:19.009Z,3.80
2019-01-04T23:26:05.476Z,3.80
2019-01-04T23:28:41.611Z,3.80
2019-01-04T23:31:14.931Z,3.70
2019-01-04T23:34:03.242Z,3.60
2019-01-04T23:36:45.623Z,3.50
2019-01-04T23:39:18.570Z,3.40
2019-01-04T23:41:51.624Z,3.40
2019-01-04T23:44:24.580Z,3.50
2019-01-04T23:47:03.561Z,3.40
2019-01-04T23:49:49.741Z,3.40
2019-01-04T23:52:36.506Z,3.40
2019-01-04T23:55:12.446Z,3.50
2019-01-04T23:58:00.753Z,3.60
